Time;durP1;ratioP1;P1;durP2;ratioP2;P2;SDS_P1;SDS_P2;PMS_P1;PMS_P2;Temp;Humidity;BMP_temperature;BMP_pressure;BME280_temperature;BME280_humidity;BME280_pressure;Samples;Min_cycle;Max_cycle;Signal;HPM_P1;HPM_P2
2022/09/29 00:01:19;;;;;;;3.97;3.07;;;;;;;21.58;51.57;94193.22;6162264;28;103399;-68
2022/09/29 00:04:22;;;;;;;3.90;3.50;;;;;;;21.55;50.97;94201.84;6163112;28;103450;-68
2022/09/29 00:07:25;;;;;;;3.60;3.30;;;;;;;21.58;50.73;94204.66;6162293;28;103235;-68
2022/09/29 00:10:28;;;;;;;4.50;2.90;;;;;;;21.57;51.13;94202.31;6151200;28;103187;-69
2022/09/29 00:13:33;;;;;;;5.60;3.13;;;;;;;21.55;50.83;94199.97;6138124;28;103280;-69
2022/09/29 00:16:36;;;;;;;4.20;3.10;;;;;;;21.56;50.80;94187.44;6137835;28;103501;-69
2022/09/29 00:19:40;;;;;;;3.93;3.50;;;;;;;21.54;50.87;94181.66;6133448;28;103363;-68
2022/09/29 00:22:50;;;;;;;3.40;3.10;;;;;;;21.55;51.16;94183.22;6133179;28;103285;-67
2022/09/29 00:26:01;;;;;;;3.87;3.47;;;;;;;21.52;50.75;94193.41;6154725;28;102908;-68
2022/09/29 00:29:05;;;;;;;3.27;2.67;;;;;;;21.55;51.10;94201.84;6162452;28;102897;-68
2022/09/29 00:32:09;;;;;;;3.47;2.80;;;;;;;21.54;51.06;94192.31;6152373;28;103674;-68
2022/09/29 00:35:12;;;;;;;3.67;3.00;;;;;;;21.55;50.98;94172.56;6161890;28;103256;-68
2022/09/29 00:38:15;;;;;;;4.80;3.30;;;;;;;21.55;50.81;94184.00;6161125;28;102997;-69
2022/09/29 00:41:23;;;;;;;4.00;3.67;;;;;;;21.54;50.61;94187.78;6160879;28;103105;-68
2022/09/29 00:44:57;;;;;;;3.33;2.93;;;;;;;21.49;50.71;94183.41;6151403;28;103068;-69
2022/09/29 00:48:07;;;;;;;3.43;3.13;;;;;;;21.48;50.17;94170.41;6160117;28;103307;-68
2022/09/29 00:51:10;;;;;;;4.43;2.80;;;;;;;21.49;50.78;94175.41;6161369;28;103236;-68
2022/09/29 00:54:14;;;;;;;4.43;2.60;;;;;;;21.51;50.64;94181.22;6154377;28;103388;-68
2022/09/29 00:57:21;;;;;;;3.07;2.67;;;;;;;21.52;50.12;94179.34;6154854;28;104139;-68
2022/09/29 01:00:26;;;;;;;2.60;2.40;;;;;;;21.50;50.18;94179.63;6158703;28;103091;-69
2022/09/29 01:03:36;;;;;;;2.97;2.37;;;;;;;21.51;50.62;94178.56;6161152;28;103108;-68
2022/09/29 01:06:43;;;;;;;3.83;2.50;;;;;;;21.50;50.20;94187.63;6151079;28;104620;-68
2022/09/29 01:09:46;;;;;;;3.07;2.50;;;;;;;21.50;50.19;94182.28;6159555;28;103281;-68
2022/09/29 01:12:50;;;;;;;3.47;2.43;;;;;;;21.47;50.50;94179.50;6160665;28;104195;-68
2022/09/29 01:15:54;;;;;;;3.50;2.83;;;;;;;21.48;50.03;94178.41;6158959;28;105361;-68
2022/09/29 01:18:59;;;;;;;2.73;2.53;;;;;;;21.46;50.03;94176.06;6148257;28;103259;-68
2022/09/29 01:22:11;;;;;;;4.40;2.57;;;;;;;21.46;50.11;94169.97;6160618;28;103559;-68
2022/09/29 01:25:35;;;;;;;4.73;2.73;;;;;;;21.44;49.67;94167.63;6160467;28;103110;-68
2022/09/29 01:29:02;;;;;;;2.90;2.70;;;;;;;21.45;50.18;94163.84;6155786;28;103450;-69
2022/09/29 01:32:14;;;;;;;5.50;2.63;;;;;;;21.45;49.64;94174.50;6154779;28;103113;-68
2022/09/29 01:35:26;;;;;;;3.30;2.30;;;;;;;21.45;49.86;94177.16;6151738;28;103294;-68
2022/09/29 01:38:47;;;;;;;2.40;2.20;;;;;;;21.45;49.80;94179.03;6160444;28;102652;-68
2022/09/29 01:41:53;;;;;;;5.80;2.63;;;;;;;21.45;50.34;94182.50;6149520;28;103272;-68
2022/09/29 01:45:02;;;;;;;2.63;2.43;;;;;;;21.45;49.92;94187.81;6160203;28;103166;-68
2022/09/29 01:48:12;;;;;;;2.80;2.60;;;;;;;21.44;50.08;94207.53;6160170;28;103204;-71
2022/09/29 01:51:18;;;;;;;3.00;2.53;;;;;;;21.43;50.02;94192.69;6159167;28;104034;-71
2022/09/29 01:54:29;;;;;;;3.30;2.33;;;;;;;21.43;49.78;94207.88;6150271;28;105117;-72
2022/09/29 01:57:37;;;;;;;2.70;2.50;;;;;;;21.44;49.63;94220.06;6148168;28;103293;-71
2022/09/29 02:00:45;;;;;;;3.97;2.67;;;;;;;21.40;49.71;94211.19;6136423;28;103143;-72
2022/09/29 02:03:54;;;;;;;3.47;2.57;;;;;;;21.41;49.67;94204.75;6129262;28;103688;-69
2022/09/29 02:07:03;;;;;;;3.00;2.70;;;;;;;21.41;49.73;94202.88;6145352;28;105356;-72
2022/09/29 02:10:12;;;;;;;2.70;2.50;;;;;;;21.40;49.93;94211.97;6161547;28;103370;-72
2022/09/29 02:13:16;;;;;;;3.30;2.80;;;;;;;21.39;49.36;94212.28;6161038;28;103328;-72
2022/09/29 02:16:24;;;;;;;4.60;2.83;;;;;;;21.40;49.61;94205.84;6149941;28;104642;-72
2022/09/29 02:19:31;;;;;;;4.90;3.30;;;;;;;21.35;49.76;94206.81;6161365;28;102993;-72
2022/09/29 02:22:35;;;;;;;3.60;2.93;;;;;;;21.37;49.41;94219.81;6160451;28;104135;-71
2022/09/29 02:25:40;;;;;;;3.13;2.83;;;;;;;21.36;49.63;94224.34;6157491;28;104578;-72
2022/09/29 02:28:45;;;;;;;4.60;3.47;;;;;;;21.37;49.81;94203.84;6149086;28;103247;-72
2022/09/29 02:31:48;;;;;;;3.47;2.57;;;;;;;21.35;49.69;94222.78;6158549;28;104390;-71
2022/09/29 02:34:55;;;;;;;3.37;3.17;;;;;;;21.31;49.54;94216.53;6157875;28;102835;-70
2022/09/29 02:38:04;;;;;;;5.63;3.10;;;;;;;21.32;49.43;94204.78;6156849;28;103180;-73
2022/09/29 02:41:22;;;;;;;3.13;2.87;;;;;;;21.36;49.48;94220.91;6159140;28;102869;-73
2022/09/29 02:44:39;;;;;;;3.10;2.90;;;;;;;21.32;49.42;94210.09;6164067;28;104348;-70
2022/09/29 02:48:00;;;;;;;3.30;3.00;;;;;;;21.30;49.42;94224.84;6158876;28;103087;-73
2022/09/29 02:51:16;;;;;;;5.20;3.03;;;;;;;21.34;49.01;94218.56;6150641;28;103142;-72
2022/09/29 02:54:27;;;;;;;4.30;3.13;;;;;;;21.33;48.97;94218.88;6164167;28;103170;-72
2022/09/29 02:57:40;;;;;;;3.27;3.03;;;;;;;21.31;49.33;94221.84;6162600;28;103187;-71
2022/09/29 03:00:44;;;;;;;5.83;5.13;;;;;;;21.31;49.30;94237.81;6157507;28;103393;-70
2022/09/29 03:03:47;;;;;;;7.20;6.60;;;;;;;21.29;49.35;94228.59;6155994;28;103425;-72
2022/09/29 03:06:52;;;;;;;5.20;4.70;;;;;;;21.29;48.81;94228.59;6160297;28;103277;-72
2022/09/29 03:09:55;;;;;;;6.10;5.50;;;;;;;21.12;49.06;94208.16;6162404;28;103443;-72
2022/09/29 03:12:58;;;;;;;4.70;3.47;;;;;;;21.08;48.78;94204.59;6151544;28;104446;-71
2022/09/29 03:16:02;;;;;;;3.90;3.57;;;;;;;21.07;49.18;94203.03;6160609;28;103353;-72
2022/09/29 03:19:06;;;;;;;4.10;3.80;;;;;;;21.02;48.60;94189.88;6162244;28;103406;-72
2022/09/29 03:22:12;;;;;;;5.80;5.27;;;;;;;21.02;49.43;94165.94;6162822;28;103044;-71
2022/09/29 03:25:18;;;;;;;6.57;6.07;;;;;;;20.99;48.60;94170.00;6152871;28;104746;-71
2022/09/29 03:28:21;;;;;;;9.07;8.17;;;;;;;21.09;48.81;94193.63;6159120;28;103394;-70
2022/09/29 03:31:24;;;;;;;9.73;8.30;;;;;;;21.20;48.79;94197.50;6156584;28;103134;-71
2022/09/29 03:34:27;;;;;;;11.27;10.37;;;;;;;21.26;48.39;94202.63;6160839;28;103760;-69
2022/09/29 03:37:32;;;;;;;10.57;9.87;;;;;;;21.30;49.19;94204.31;6149885;28;105827;-71
2022/09/29 03:40:35;;;;;;;26.80;24.60;;;;;;;21.33;49.40;94195.69;6144277;28;105705;-66
2022/09/29 03:43:38;;;;;;;25.13;23.23;;;;;;;21.42;50.71;94199.09;6145127;28;103078;-66
2022/09/29 03:46:42;;;;;;;20.63;19.10;;;;;;;21.44;50.00;94202.22;6147381;28;102869;-67
2022/09/29 03:49:45;;;;;;;11.80;10.87;;;;;;;21.41;49.43;94197.53;6153570;28;103088;-72
2022/09/29 03:52:49;;;;;;;10.77;9.87;;;;;;;21.40;48.78;94200.53;6149043;28;102938;-72
2022/09/29 03:55:52;;;;;;;12.57;11.57;;;;;;;21.42;49.49;94211.63;6152136;28;103298;-71
2022/09/29 03:58:55;;;;;;;12.20;11.23;;;;;;;21.44;49.98;94218.19;6151530;28;104207;-72
2022/09/29 04:01:58;;;;;;;12.03;11.17;;;;;;;21.45;49.30;94201.13;6162455;28;102884;-71
2022/09/29 04:05:02;;;;;;;9.67;8.87;;;;;;;21.42;49.38;94212.41;6157352;28;104563;-71
2022/09/29 04:08:06;;;;;;;13.07;8.27;;;;;;;21.38;49.42;94211.50;6159964;28;103269;-69
2022/09/29 04:11:09;;;;;;;7.37;6.67;;;;;;;21.51;49.69;94215.03;6150378;28;103899;-70
2022/09/29 04:14:12;;;;;;;7.87;6.23;;;;;;;21.60;49.65;94214.97;6156867;28;103226;-70
2022/09/29 04:17:15;;;;;;;8.13;6.03;;;;;;;21.65;49.48;94225.44;6156776;28;102694;-72
2022/09/29 04:20:18;;;;;;;9.50;6.83;;;;;;;21.66;49.73;94232.31;6163353;28;103214;-70
2022/09/29 04:23:23;;;;;;;7.10;5.10;;;;;;;21.46;48.48;94221.31;6152677;28;103900;-71
2022/09/29 04:26:26;;;;;;;7.50;5.20;;;;;;;21.35;48.63;94217.47;6162605;28;103164;-71
2022/09/29 04:29:29;;;;;;;5.60;5.10;;;;;;;21.41;48.82;94223.38;6159861;28;103593;-71
2022/09/29 04:32:33;;;;;;;6.20;5.60;;;;;;;21.35;48.65;94228.13;6157103;28;104973;-71
2022/09/29 04:35:36;;;;;;;8.10;5.07;;;;;;;21.36;48.22;94235.00;6154302;28;103091;-71
2022/09/29 04:38:40;;;;;;;6.10;4.63;;;;;;;21.32;47.89;94228.72;6160338;28;103151;-71
2022/09/29 04:41:44;;;;;;;6.33;4.70;;;;;;;21.32;47.71;94238.59;6160389;28;103448;-72
2022/09/29 04:44:48;;;;;;;5.57;4.50;;;;;;;21.32;48.21;94226.06;6153168;28;103068;-71
2022/09/29 04:47:51;;;;;;;6.73;5.20;;;;;;;21.29;48.08;94218.72;6163007;28;103307;-68
2022/09/29 04:50:55;;;;;;;5.73;5.23;;;;;;;21.28;47.79;94219.84;6162033;28;103275;-71
2022/09/29 04:53:59;;;;;;;10.43;8.10;;;;;;;21.15;48.01;94223.47;6162856;28;103118;-71
2022/09/29 04:57:02;;;;;;;7.00;5.60;;;;;;;21.09;47.82;94230.88;6151752;28;103117;-72
2022/09/29 05:00:07;;;;;;;8.43;5.43;;;;;;;21.16;47.79;94219.72;6161188;28;103210;-71
2022/09/29 05:03:10;;;;;;;6.40;4.67;;;;;;;21.19;47.65;94235.84;6162774;28;103349;-71
2022/09/29 05:06:17;;;;;;;8.03;4.53;;;;;;;21.21;47.68;94232.88;6162382;28;104457;-70
2022/09/29 05:09:21;;;;;;;5.13;4.30;;;;;;;21.22;47.39;94226.44;6153919;28;104412;-72
2022/09/29 05:12:27;;;;;;;5.80;4.87;;;;;;;21.23;47.20;94225.34;6161490;28;103091;-71
2022/09/29 05:15:30;;;;;;;5.40;4.90;;;;;;;21.23;47.57;94209.38;6161981;28;103223;-72
2022/09/29 05:18:33;;;;;;;6.33;4.80;;;;;;;21.20;47.82;94202.03;6157149;28;103342;-68
2022/09/29 05:21:36;;;;;;;7.43;5.00;;;;;;;21.21;47.65;94214.25;6159482;28;103843;-71
2022/09/29 05:24:41;;;;;;;7.90;4.87;;;;;;;21.20;47.45;94207.38;6162720;28;105898;-71
2022/09/29 05:27:44;;;;;;;7.07;4.80;;;;;;;21.21;47.80;94211.59;6162645;28;104009;-72
2022/09/29 05:30:47;;;;;;;9.40;5.50;;;;;;;21.23;47.83;94220.03;6150978;28;103346;-71
2022/09/29 05:33:50;;;;;;;8.50;4.93;;;;;;;21.22;47.82;94223.78;6162904;28;104281;-72
2022/09/29 05:36:53;;;;;;;10.30;5.30;;;;;;;21.25;48.04;94217.03;6162230;28;104215;-71
2022/09/29 05:39:58;;;;;;;7.50;4.87;;;;;;;21.24;48.18;94205.63;6162875;28;104189;-71
2022/09/29 05:43:01;;;;;;;6.60;5.00;;;;;;;21.24;47.75;94194.19;6151566;28;104763;-71
2022/09/29 05:46:07;;;;;;;5.47;4.97;;;;;;;21.25;47.66;94191.22;6161949;28;102564;-71
2022/09/29 05:49:10;;;;;;;9.43;4.63;;;;;;;21.27;47.75;94189.00;6161889;28;105929;-72
2022/09/29 05:52:14;;;;;;;5.30;4.80;;;;;;;21.30;48.01;94214.97;6156732;28;103066;-71
2022/09/29 05:55:19;;;;;;;5.77;4.27;;;;;;;21.33;47.67;94235.63;6156424;28;103550;-72
2022/09/29 05:58:27;;;;;;;9.93;5.20;;;;;;;21.35;48.46;94243.31;6161615;28;103747;-71
2022/09/29 06:01:33;;;;;;;8.27;5.30;;;;;;;21.34;48.33;94234.53;6162146;28;105912;-72
2022/09/29 06:04:36;;;;;;;7.80;5.40;;;;;;;21.41;48.10;94234.81;6150886;28;103057;-72
2022/09/29 06:07:42;;;;;;;8.00;5.20;;;;;;;21.43;48.14;94245.91;6161783;28;103436;-72
2022/09/29 06:10:47;;;;;;;7.23;4.60;;;;;;;21.47;48.25;94246.03;6161612;28;104143;-72
2022/09/29 06:13:52;;;;;;;6.73;4.70;;;;;;;21.51;48.34;94239.78;6166095;28;103211;-71
2022/09/29 06:16:55;;;;;;;8.07;4.80;;;;;;;21.52;48.58;94246.66;6154871;28;102671;-71
2022/09/29 06:19:58;;;;;;;5.50;4.80;;;;;;;21.58;48.23;94257.13;6164903;28;103083;-71
2022/09/29 06:23:01;;;;;;;8.47;4.63;;;;;;;21.65;48.07;94257.38;6165401;28;104213;-71
2022/09/29 06:26:08;;;;;;;8.27;4.60;;;;;;;21.73;47.54;94256.56;6162358;28;103082;-67
2022/09/29 06:29:11;;;;;;;5.40;4.20;;;;;;;21.77;47.86;94255.59;6160891;28;103946;-72
2022/09/29 06:32:14;;;;;;;5.97;3.90;;;;;;;21.87;47.61;94259.81;6165230;28;104714;-70
2022/09/29 06:38:38;;;;;;;10.37;5.67;;;;;;;22.15;47.49;94251.28;6154624;28;104602;-70
2022/09/29 06:41:47;;;;;;;7.00;5.10;;;;;;;22.22;47.21;94249.69;6164482;28;103136;-70
2022/09/29 06:44:50;;;;;;;6.10;5.10;;;;;;;22.24;47.39;94257.34;6164437;28;103090;-71
2022/09/29 06:47:58;;;;;;;7.13;4.73;;;;;;;22.17;47.52;94268.50;6164726;28;103289;-71
2022/09/29 06:51:01;;;;;;;5.47;4.73;;;;;;;22.13;47.43;94262.28;6153766;28;103584;-72
2022/09/29 06:54:12;;;;;;;6.30;5.33;;;;;;;22.10;47.93;94253.06;6164844;28;103105;-68
2022/09/29 06:57:17;;;;;;;7.83;5.03;;;;;;;22.07;47.77;94267.03;6164409;28;103404;-71
2022/09/29 07:00:20;;;;;;;6.47;4.97;;;;;;;22.09;47.75;94264.81;6159992;28;103244;-71
2022/09/29 07:03:24;;;;;;;9.07;6.17;;;;;;;22.11;47.89;94267.94;6158838;28;103516;-63
2022/09/29 07:06:29;;;;;;;7.63;5.13;;;;;;;22.12;47.80;94276.72;6164537;28;102661;-64
2022/09/29 07:09:32;;;;;;;5.70;5.13;;;;;;;22.14;47.49;94284.38;6164221;28;103306;-64
2022/09/29 07:12:36;;;;;;;7.07;5.00;;;;;;;22.19;47.57;94292.97;6153895;28;104546;-64
2022/09/29 07:15:39;;;;;;;5.30;4.80;;;;;;;22.19;47.90;94298.31;6164295;28;102865;-63
2022/09/29 07:18:43;;;;;;;8.43;4.57;;;;;;;22.18;47.95;94291.41;6163743;28;104252;-63
2022/09/29 07:21:47;;;;;;;6.47;4.40;;;;;;;22.26;47.29;94295.13;6164081;28;103995;-65
2022/09/29 07:24:52;;;;;;;5.10;4.60;;;;;;;22.30;47.48;94283.47;6151941;28;103037;-63
2022/09/29 07:27:56;;;;;;;5.53;5.03;;;;;;;22.30;47.30;94266.69;6163538;28;103219;-63
2022/09/29 07:31:00;;;;;;;6.87;5.07;;;;;;;22.26;47.57;94266.59;6163404;28;103124;-63
2022/09/29 07:34:16;;;;;;;5.90;4.77;;;;;;;22.20;47.93;94273.22;6158887;28;104101;-67
2022/09/29 07:37:19;;;;;;;10.00;5.33;;;;;;;22.23;47.70;94271.78;6158373;28;103364;-62
2022/09/29 07:40:23;;;;;;;5.43;4.53;;;;;;;22.26;47.67;94282.56;6163150;28;103119;-64
2022/09/29 07:43:27;;;;;;;7.40;4.40;;;;;;;22.28;47.28;94291.03;6163050;28;103436;-64
2022/09/29 07:46:31;;;;;;;4.23;3.83;;;;;;;22.24;47.69;94284.00;6152992;28;103164;-63
2022/09/29 07:49:34;;;;;;;4.73;4.10;;;;;;;22.24;47.44;94278.69;6163084;28;104297;-63
2022/09/29 07:52:37;;;;;;;3.70;3.20;;;;;;;22.27;47.32;94276.13;6163143;28;103269;-63
2022/09/29 07:55:40;;;;;;;4.60;4.20;;;;;;;22.34;47.19;94278.25;6162751;28;103283;-63
2022/09/29 07:58:46;;;;;;;3.87;3.57;;;;;;;22.39;47.54;94286.88;6152153;28;102950;-63
2022/09/29 08:01:49;;;;;;;4.53;4.10;;;;;;;22.44;47.12;94290.44;6162935;28;103142;-64
2022/09/29 08:04:53;;;;;;;5.50;4.07;;;;;;;22.49;47.42;94296.34;6162890;28;103469;-64
2022/09/29 08:08:04;;;;;;;3.90;3.43;;;;;;;22.54;47.42;94298.06;6163381;28;103141;-63
2022/09/29 08:11:08;;;;;;;5.20;4.07;;;;;;;22.56;47.02;94309.16;6152381;28;103235;-63
2022/09/29 08:14:23;;;;;;;6.03;3.67;;;;;;;22.57;46.95;94300.09;6162670;28;103224;-63
2022/09/29 08:17:26;;;;;;;4.60;3.63;;;;;;;22.61;46.99;94306.31;6162121;28;103667;-63
2022/09/29 08:20:30;;;;;;;4.93;3.50;;;;;;;22.62;46.92;94311.31;6152450;28;103163;-63
2022/09/29 08:23:36;;;;;;;4.57;3.27;;;;;;;22.68;47.29;94309.22;6161955;28;102998;-64
2022/09/29 08:26:40;;;;;;;4.47;3.37;;;;;;;22.74;47.01;94310.59;6162084;28;103263;-64
2022/09/29 08:29:47;;;;;;;4.70;3.20;;;;;;;22.79;46.66;94302.41;6162479;28;103407;-63
2022/09/29 08:32:54;;;;;;;6.20;4.60;;;;;;;22.79;46.86;94301.63;6150742;28;103414;-63
2022/09/29 08:35:57;;;;;;;3.40;2.87;;;;;;;22.78;46.82;94313.41;6162363;28;103291;-63
2022/09/29 08:39:01;;;;;;;3.50;3.20;;;;;;;22.78;46.43;94318.72;6162331;28;103747;-64
2022/09/29 08:42:12;;;;;;;3.70;2.90;;;;;;;22.73;47.15;94325.06;6162178;28;107023;-64
2022/09/29 08:45:28;;;;;;;5.87;3.70;;;;;;;22.71;47.25;94327.28;6153011;28;104451;-65
2022/09/29 08:48:36;;;;;;;4.03;3.43;;;;;;;22.76;46.83;94305.72;6161891;28;103343;-64
2022/09/29 08:51:53;;;;;;;4.77;3.80;;;;;;;22.87;46.58;94312.22;6161981;28;103103;-64
2022/09/29 08:55:02;;;;;;;4.43;3.83;;;;;;;22.91;46.50;94309.66;6150277;28;104943;-64
2022/09/29 08:58:22;;;;;;;4.10;3.50;;;;;;;22.93;46.88;94324.25;6162302;28;103087;-64
2022/09/29 09:01:35;;;;;;;4.33;3.73;;;;;;;22.98;46.76;94320.56;6161514;28;103277;-66
2022/09/29 09:04:53;;;;;;;4.27;3.87;;;;;;;23.00;46.57;94316.47;6161655;28;103111;-64
2022/09/29 09:08:03;;;;;;;5.90;4.03;;;;;;;22.99;46.85;94316.78;6152086;28;104301;-64
2022/09/29 09:11:21;;;;;;;4.13;3.73;;;;;;;22.97;46.32;94313.69;6161935;28;104109;-64
2022/09/29 09:14:39;;;;;;;5.47;4.87;;;;;;;22.97;46.58;94311.00;6161771;28;103320;-64
2022/09/29 09:17:58;;;;;;;7.20;4.27;;;;;;;22.96;46.78;94314.78;6150902;28;104277;-64
2022/09/29 09:21:07;;;;;;;5.80;5.40;;;;;;;23.01;46.31;94306.56;6161452;28;105763;-66
2022/09/29 09:24:17;;;;;;;5.90;5.20;;;;;;;23.06;46.39;94295.72;6161375;28;104171;-64
2022/09/29 09:27:31;;;;;;;6.80;6.20;;;;;;;23.10;46.29;94309.94;6161875;28;103563;-64
2022/09/29 09:30:43;;;;;;;6.13;5.60;;;;;;;23.15;45.98;94309.72;6153096;28;103442;-64
2022/09/29 09:33:53;;;;;;;8.30;6.80;;;;;;;23.26;46.26;94313.53;6160723;28;103017;-66
2022/09/29 09:37:14;;;;;;;6.40;5.63;;;;;;;23.33;46.29;94305.00;6161821;28;104201;-66
2022/09/29 09:40:22;;;;;;;5.90;5.40;;;;;;;23.32;46.26;94300.78;6151024;28;103049;-66
2022/09/29 09:43:29;;;;;;;6.23;5.43;;;;;;;23.33;45.78;94302.34;6161995;28;103046;-66
2022/09/29 09:46:39;;;;;;;6.63;5.27;;;;;;;23.29;45.70;94302.22;6159738;28;103104;-66
2022/09/29 09:49:51;;;;;;;5.60;5.03;;;;;;;23.25;45.85;94303.19;6161543;28;103600;-66
2022/09/29 09:52:59;;;;;;;6.30;5.70;;;;;;;23.27;45.35;94301.75;6148132;28;102905;-67
2022/09/29 09:56:13;;;;;;;8.30;5.10;;;;;;;23.33;45.03;94293.56;6161155;28;103061;-66
2022/09/29 09:59:29;;;;;;;5.73;5.23;;;;;;;23.34;45.40;94292.44;6161631;28;103233;-66
2022/09/29 10:02:32;;;;;;;5.50;5.00;;;;;;;23.34;45.10;94290.56;6150843;28;104463;-66
2022/09/29 10:05:40;;;;;;;6.10;5.50;;;;;;;23.38;45.39;94298.69;6160618;28;102987;-66
2022/09/29 10:08:43;;;;;;;5.27;4.70;;;;;;;23.44;45.05;94297.38;6160330;28;103464;-66
2022/09/29 10:11:46;;;;;;;5.27;4.80;;;;;;;23.50;44.48;94309.38;6160757;28;103311;-66
2022/09/29 10:14:53;;;;;;;4.47;4.07;;;;;;;23.47;44.67;94299.38;6150487;28;104691;-67
2022/09/29 10:18:04;;;;;;;5.23;4.80;;;;;;;23.43;45.17;94304.59;6161204;28;105953;-65
2022/09/29 10:21:21;;;;;;;6.27;5.63;;;;;;;23.39;45.44;94302.94;6160698;28;103037;-66
2022/09/29 10:24:27;;;;;;;7.73;6.93;;;;;;;23.35;44.97;94294.78;6157140;28;104228;-68
2022/09/29 10:27:31;;;;;;;7.50;6.60;;;;;;;23.37;44.96;94292.59;6154577;28;103165;-66
2022/09/29 10:30:35;;;;;;;6.60;6.00;;;;;;;23.34;44.98;94292.44;6160407;28;104872;-65
2022/09/29 10:33:47;;;;;;;6.47;5.87;;;;;;;23.33;45.56;94296.22;6160221;28;103071;-61
2022/09/29 10:36:55;;;;;;;6.20;5.60;;;;;;;23.25;45.29;94295.19;6149950;28;104228;-62
2022/09/29 10:40:13;;;;;;;5.50;5.10;;;;;;;23.22;45.16;94290.53;6160490;28;102919;-63
2022/09/29 10:43:25;;;;;;;5.97;5.47;;;;;;;23.17;45.64;94298.72;6160514;28;103157;-62
2022/09/29 10:46:48;;;;;;;6.60;5.90;;;;;;;23.13;45.40;94308.50;6160403;28;104244;-67
2022/09/29 10:50:12;;;;;;;8.00;7.27;;;;;;;23.11;45.83;94306.16;6150012;28;103290;-72
2022/09/29 10:53:24;;;;;;;9.30;8.50;;;;;;;23.09;46.02;94291.59;6159780;28;103266;-62
2022/09/29 10:56:28;;;;;;;11.30;9.40;;;;;;;23.06;45.83;94282.38;6159739;28;103126;-62
2022/09/29 10:59:32;;;;;;;9.80;8.90;;;;;;;23.07;45.55;94275.13;6153392;28;104530;-66
2022/09/29 11:02:40;;;;;;;11.00;10.00;;;;;;;23.03;45.56;94284.91;6163591;28;103447;-62
2022/09/29 11:05:53;;;;;;;10.00;9.10;;;;;;;22.95;46.24;94281.22;6163915;28;103053;-62
2022/09/29 11:09:00;;;;;;;10.47;9.57;;;;;;;22.97;46.23;94279.00;6163509;28;103254;-62
2022/09/29 11:12:04;;;;;;;10.30;9.47;;;;;;;22.95;46.08;94275.88;6153685;28;103079;-62
2022/09/29 11:15:24;;;;;;;11.10;10.10;;;;;;;22.92;46.13;94276.53;6163794;28;103097;-62
2022/09/29 11:18:34;;;;;;;10.63;9.67;;;;;;;22.88;46.32;94276.44;6164126;28;103112;-62
2022/09/29 11:22:19;;;;;;;11.30;10.40;;;;;;;22.88;45.95;94276.44;6158707;28;103642;-62
2022/09/29 11:25:39;;;;;;;10.20;9.27;;;;;;;22.87;45.98;94271.44;6163894;28;103438;-63
2022/09/29 11:29:12;;;;;;;9.87;8.87;;;;;;;22.89;45.88;94271.88;6163205;28;103304;-62
2022/09/29 11:32:36;;;;;;;10.70;9.70;;;;;;;22.86;46.03;94267.97;6152727;28;103401;-62
2022/09/29 11:35:50;;;;;;;11.60;10.50;;;;;;;22.88;45.87;94257.75;6158631;28;105737;-61
2022/09/29 11:39:06;;;;;;;11.27;10.27;;;;;;;22.94;46.44;94269.00;6162786;28;103290;-62
2022/09/29 11:42:25;;;;;;;11.70;10.50;;;;;;;22.95;46.21;94260.66;6163584;28;103155;-62
2022/09/29 11:45:38;;;;;;;10.40;9.60;;;;;;;22.97;46.20;94260.31;6152727;28;104245;-62
2022/09/29 11:48:56;;;;;;;10.33;9.33;;;;;;;22.93;45.96;94267.44;6163650;28;103601;-62
2022/09/29 11:52:34;;;;;;;10.87;9.97;;;;;;;22.91;46.62;94265.09;6162663;28;103414;-62
2022/09/29 11:55:50;;;;;;;11.30;10.30;;;;;;;22.93;46.50;94273.53;6158658;28;104479;-63
2022/09/29 11:59:13;;;;;;;10.70;9.80;;;;;;;22.89;46.66;94267.31;6161494;28;103168;-62
2022/09/29 12:03:05;;;;;;;10.50;9.60;;;;;;;22.88;45.83;94270.31;6163377;28;102820;-66
2022/09/29 12:06:41;;;;;;;10.17;9.17;;;;;;;22.84;46.00;94269.38;6154906;28;103056;-65
2022/09/29 12:10:22;;;;;;;13.30;10.37;;;;;;;22.85;46.32;94258.41;6157757;28;104274;-64
2022/09/29 12:13:42;;;;;;;9.43;8.63;;;;;;;22.80;46.36;94253.28;6163290;28;103131;-64
2022/09/29 12:16:52;;;;;;;9.73;8.93;;;;;;;22.84;45.68;94261.38;6162092;28;103252;-64
2022/09/29 12:20:01;;;;;;;10.00;9.10;;;;;;;22.81;45.81;94248.72;6152759;28;103847;-67
2022/09/29 12:23:10;;;;;;;9.37;8.57;;;;;;;22.81;45.74;94254.03;6162117;28;103760;-64
2022/09/29 12:26:17;;;;;;;9.63;8.63;;;;;;;22.78;45.87;94252.81;6162590;28;103278;-65
2022/09/29 12:29:32;;;;;;;8.83;8.13;;;;;;;22.79;46.05;94256.28;6158864;28;103077;-65
2022/09/29 12:32:41;;;;;;;9.40;8.50;;;;;;;22.78;45.83;94260.03;6156688;28;104126;-65
2022/09/29 12:35:54;;;;;;;9.20;8.47;;;;;;;22.78;45.79;94276.06;6162421;28;103291;-65
2022/09/29 12:39:04;;;;;;;9.20;8.40;;;;;;;22.75;46.10;94272.16;6162244;28;103409;-64
2022/09/29 12:42:21;;;;;;;9.27;8.47;;;;;;;22.75;45.75;94271.38;6152084;28;103141;-64
2022/09/29 12:45:30;;;;;;;9.27;8.43;;;;;;;22.75;46.40;94266.81;6162429;28;105075;-64
2022/09/29 12:48:51;;;;;;;8.50;7.90;;;;;;;22.74;45.84;94267.16;6162481;28;104760;-65
2022/09/29 12:51:57;;;;;;;8.70;8.00;;;;;;;22.75;45.97;94266.03;6157262;28;102869;-65
2022/09/29 12:55:05;;;;;;;8.70;8.00;;;;;;;22.73;45.81;94253.03;6156326;28;103000;-64
2022/09/29 12:58:19;;;;;;;7.97;7.37;;;;;;;22.74;45.81;94261.81;6162377;28;103232;-65
2022/09/29 13:01:27;;;;;;;8.40;7.70;;;;;;;22.75;46.23;94263.38;6162127;28;103823;-65
2022/09/29 13:05:05;;;;;;;8.57;7.77;;;;;;;22.74;45.89;94270.59;6150771;28;103083;-64
2022/09/29 13:08:39;;;;;;;7.67;6.97;;;;;;;22.73;45.89;94271.72;6122181;28;103456;-65
2022/09/29 13:12:00;;;;;;;7.10;6.60;;;;;;;22.73;45.75;94284.25;6161628;28;103094;-64
2022/09/29 13:15:37;;;;;;;7.57;6.97;;;;;;;22.72;46.05;94266.72;6156126;28;103133;-65
2022/09/29 13:19:16;;;;;;;7.83;7.03;;;;;;;22.66;45.28;94258.09;6162018;28;103346;-63
2022/09/29 13:23:23;;;;;;;8.30;7.50;;;;;;;22.67;45.83;94254.34;6160115;28;103130;-64
2022/09/29 13:26:42;;;;;;;8.30;7.60;;;;;;;22.66;45.72;94258.88;6045327;28;104230;-64
2022/09/29 13:29:50;;;;;;;7.80;7.10;;;;;;;22.68;45.82;94262.03;6160486;28;103532;-64
2022/09/29 13:33:01;;;;;;;7.87;7.20;;;;;;;22.68;45.88;94271.88;6161353;28;103087;-65
2022/09/29 13:36:04;;;;;;;7.13;6.63;;;;;;;22.67;45.72;94271.13;6160936;28;102705;-65
2022/09/29 13:39:22;;;;;;;7.30;6.70;;;;;;;22.66;45.74;94271.44;6149865;28;103248;-65
2022/09/29 13:42:37;;;;;;;7.20;6.60;;;;;;;22.66;46.28;94263.44;6160920;28;103285;-66
2022/09/29 13:45:43;;;;;;;7.50;6.80;;;;;;;22.64;45.65;94261.09;6161197;28;103085;-65
2022/09/29 13:48:51;;;;;;;7.23;6.63;;;;;;;22.65;46.05;94265.34;6156517;28;103004;-65
2022/09/29 13:51:56;;;;;;;6.67;6.07;;;;;;;22.64;46.31;94277.09;6155922;28;103473;-66
2022/09/29 13:55:40;;;;;;;7.50;6.77;;;;;;;22.63;45.92;94282.78;6160893;28;103271;-65
2022/09/29 13:58:59;;;;;;;8.17;7.47;;;;;;;22.63;46.34;94302.22;6160201;28;103258;-65
2022/09/29 14:02:19;;;;;;;7.87;7.17;;;;;;;22.63;46.22;94288.88;6151364;28;106597;-63
2022/09/29 14:05:55;;;;;;;7.40;6.80;;;;;;;22.63;45.86;94286.22;6160908;28;103082;-65
2022/09/29 14:09:04;;;;;;;7.03;6.50;;;;;;;22.63;45.77;94288.09;6161207;28;103082;-64
2022/09/29 14:12:18;;;;;;;6.50;6.00;;;;;;;22.61;46.34;94283.09;6151842;28;104693;-66
2022/09/29 14:15:22;;;;;;;7.53;6.93;;;;;;;22.62;46.21;94278.53;6160500;28;103617;-65
2022/09/29 14:18:31;;;;;;;7.20;6.60;;;;;;;22.58;46.09;94281.09;6161405;28;104194;-64
2022/09/29 14:21:53;;;;;;;6.80;6.30;;;;;;;22.57;46.21;94302.75;6160349;28;103252;-64
2022/09/29 14:25:35;;;;;;;6.33;5.83;;;;;;;22.57;46.34;94322.19;6150455;28;103177;-64
2022/09/29 14:28:42;;;;;;;6.30;5.90;;;;;;;22.56;46.14;94317.94;6160772;28;104285;-64
2022/09/29 14:31:51;;;;;;;7.30;6.70;;;;;;;22.56;46.21;94360.59;6161042;28;103156;-64
2022/09/29 14:34:55;;;;;;;6.80;6.20;;;;;;;22.55;46.20;94380.38;6154328;28;103187;-65
2022/09/29 14:38:02;;;;;;;7.70;7.00;;;;;;;22.55;46.46;94380.38;6164910;28;103367;-64
2022/09/29 14:41:22;;;;;;;7.23;6.63;;;;;;;22.53;47.17;94387.16;6164802;28;103179;-64
2022/09/29 14:51:56;;;;;;;7.77;7.07;;;;;;;22.51;47.50;94390.09;6188205;28;103120;-64